Wednesday, January 17, 2018, 11:33 AM GMT
Back to Local

CWWZ, Port Weller, Ont.

Location: , , Canada Lat: 43.25
Local Time: 11:33 AM GMT (11:33 GMT) Lon: -79.217
Time Zone: GMT Elev: 259 ft

Show me the last for .
Show Decoded

2018-01-17 11:00 METAR CWWZ 171100Z AUTO 24006KT M08/M11 RMK AO1 SOG 03 3001 SLP302 T10801107 =
2018-01-17 10:00 METAR CWWZ 171000Z AUTO 24008KT M08/M11 RMK AO1 SOG 03 5001 SLP299 T10791107 =
2018-01-17 09:00 METAR CWWZ 170900Z AUTO 21009G16KT M08/M11 RMK AO1 SOG 03 8002 PK WND 21017/0847
                 SLP297 T10821112 =
2018-01-17 08:00 METAR CWWZ 170800Z AUTO 22008KT M08/M11 RMK AO1 SOG 03 5003 PK WND 22017/0705
                 SLP301 T10811113 =
2018-01-17 07:00 METAR CWWZ 170700Z AUTO 22007KT M08/M11 RMK AO1 SOG 03 5006 SLP300 T10821113 =
2018-01-17 06:00 METAR CWWZ 170600Z AUTO 22005KT M08/M11 RMK AO1 SOG 03 8010 SLP299 T10841109 =
2018-01-17 05:00 METAR CWWZ 170500Z AUTO 20006KT M09/M12 RMK AO1 SOG 03 8001 SLP304 T10891120 =
2018-01-17 04:00 METAR CWWZ 170400Z AUTO 22010G18KT M08/M12 RMK AO1 SOG 03 0004 PK WND 22018/0355
                 SLP306 T10751123 =
2018-01-17 03:00 METAR CWWZ 170300Z AUTO 24008KT M08/M12 RMK AO1 SOG 03 3009 SLP309 T10801116 =
2018-01-17 02:00 METAR CWWZ 170200Z AUTO 23007KT M07/M11 RMK AO1 SOG 03 1011 PK WND 21017/0141
                 SLP305 T10731108 =
2018-01-17 01:00 METAR CWWZ 170100Z AUTO 23007KT M06/M09 RMK AO1 SOG 03 1012 SLP301 T10591087 =
2018-01-17 00:00 METAR CWWZ 170000Z AUTO 23007KT M06/M08 RMK AO1 SOG 03 3013 SLP299 T10561075 =
2018-01-16 23:00 METAR CWWZ 162300Z AUTO 20007KT M05/M08 RMK AO1 SOG 03 3006 SLP293 T10461079 =
2018-01-16 22:00 METAR CWWZ 162200Z AUTO 20005KT M04/M07 RMK AO1 SOG 03 3003 SLP289 T10391073 =
2018-01-16 21:00 METAR CWWZ 162100Z AUTO 22004KT M03/M07 RMK AO1 SOG 03 0000 SLP286 T10331073 =
2018-01-16 20:00 METAR CWWZ 162000Z AUTO 23003KT M02/M08 RMK AO1 SOG 03 5007 SLP287 T10241078 =
2018-01-16 19:00 METAR CWWZ 161900Z AUTO 24003KT M02/M08 RMK AO1 SOG 03 6013 SLP286 T10211079 =
2018-01-16 18:00 METAR CWWZ 161800Z AUTO 26005KT M02/M07 RMK AO1 SOG 03 8014 SLP286 T10221070 =
2018-01-16 17:00 METAR CWWZ 161700Z AUTO 26006KT M02/M07 RMK AO1 SOG 03 0004 SLP294 T10231068 =
2018-01-16 16:00 METAR CWWZ 161600Z AUTO 24005KT M03/M07 RMK AO1 SOG 03 0014 SLP299 T10261070 =
2018-01-16 15:00 METAR CWWZ 161500Z AUTO 24006KT M03/M06 RMK AO1 SOG 03 3021 PK WND 26018/1412
                 SLP300 T10281060 =
2018-01-16 14:00 METAR CWWZ 161400Z AUTO 25008G15KT M03/M06 RMK AO1 SOG 03 3014 SLP290 T10271056
                 =
2018-01-16 13:00 METAR CWWZ 161300Z AUTO 22006KT M03/M05 RMK AO1 SOG 03 3014 SLP285 T10331052 =
2018-01-16 12:00 METAR CWWZ 161200Z AUTO 26007KT M03/M05 RMK AO1 SOG 03 3009 SLP279 T10301048
                 50002 =

Support USWX by starting your Amazon purchase here.